Time;durP1;ratioP1;P1;durP2;ratioP2;P2;SDS_P1;SDS_P2;PMS_P1;PMS_P2;Temp;Humidity;BMP_temperature;BMP_pressure;BME280_temperature;BME280_humidity;BME280_pressure;Samples;Min_cycle;Max_cycle;Signal;HPM_P1;HPM_P2
2022/03/17 00:00:15;;;;;;;24.13;16.52;;;11.50;99.90;;;;;;5045735;28;20091;-48
2022/03/17 00:02:41;;;;;;;25.40;16.60;;;11.40;99.90;;;;;;5050087;28;20028;-50
2022/03/17 00:05:09;;;;;;;26.98;17.38;;;11.40;99.90;;;;;;5049815;28;20040;-48
2022/03/17 00:07:36;;;;;;;24.48;16.90;;;11.40;99.90;;;;;;5049724;28;20408;-47
2022/03/17 00:10:07;;;;;;;27.67;17.70;;;11.40;99.90;;;;;;5050175;28;20045;-47
2022/03/17 00:12:33;;;;;;;26.02;17.00;;;11.30;99.90;;;;;;5051199;28;20037;-47
2022/03/17 00:14:59;;;;;;;24.50;16.17;;;11.40;99.90;;;;;;5052801;28;20098;-48
2022/03/17 00:17:26;;;;;;;27.17;17.45;;;11.30;99.90;;;;;;5051258;28;20048;-49
2022/03/17 00:19:53;;;;;;;25.63;16.90;;;11.30;99.90;;;;;;5051307;28;20044;-48
2022/03/17 00:22:18;;;;;;;24.27;17.50;;;11.30;99.90;;;;;;5053598;28;20041;-49
2022/03/17 00:24:46;;;;;;;25.70;18.02;;;11.30;99.90;;;;;;5053805;28;20183;-49
2022/03/17 00:27:12;;;;;;;28.58;17.40;;;11.30;99.90;;;;;;5054280;28;20033;-47
2022/03/17 00:29:39;;;;;;;26.52;18.35;;;11.30;99.90;;;;;;5053977;28;20041;-48
2022/03/17 00:32:08;;;;;;;26.45;17.83;;;11.30;99.90;;;;;;5053587;28;20033;-48
2022/03/17 00:35:35;;;;;;;26.38;17.52;;;11.30;99.90;;;;;;5053624;28;20044;-47
2022/03/17 00:37:20;;;;;;;27.67;18.02;;;11.30;99.90;;;;;;5053438;28;20459;-48
2022/03/17 00:39:46;;;;;;;24.50;17.40;;;11.30;99.90;;;;;;5053032;28;20128;-51
2022/03/17 00:42:11;;;;;;;25.85;18.35;;;11.30;99.90;;;;;;5053393;28;20155;-50
2022/03/17 00:44:37;;;;;;;26.65;17.90;;;11.20;99.90;;;;;;5053733;28;20041;-48
2022/03/17 00:47:03;;;;;;;28.15;17.80;;;11.30;99.90;;;;;;5053679;28;20040;-46
2022/03/17 00:49:29;;;;;;;26.05;18.75;;;11.20;99.90;;;;;;5053479;28;20037;-46
2022/03/17 00:51:54;;;;;;;25.27;18.27;;;11.20;99.90;;;;;;5051910;28;20099;-45
2022/03/17 00:54:20;;;;;;;28.85;18.80;;;11.20;99.90;;;;;;5053436;28;20072;-47
2022/03/17 00:56:45;;;;;;;26.63;18.77;;;11.20;99.90;;;;;;5053312;28;20045;-47
2022/03/17 00:59:12;;;;;;;28.10;18.45;;;11.30;99.90;;;;;;5052093;28;20098;-45
2022/03/17 01:01:38;;;;;;;25.40;17.75;;;11.20;99.90;;;;;;5051170;28;20460;-51
2022/03/17 01:04:03;;;;;;;25.65;17.55;;;11.20;99.90;;;;;;5050941;28;20032;-49
2022/03/17 01:06:29;;;;;;;25.13;19.38;;;11.20;99.90;;;;;;5052504;28;20480;-45
2022/03/17 01:08:55;;;;;;;24.40;17.70;;;11.20;99.90;;;;;;5052852;28;20088;-48
2022/03/17 01:11:20;;;;;;;28.30;18.67;;;11.20;99.90;;;;;;5052873;28;20037;-47
2022/03/17 01:13:46;;;;;;;26.35;18.67;;;11.20;99.90;;;;;;5051714;28;20393;-47
2022/03/17 01:16:12;;;;;;;29.40;19.05;;;11.20;99.90;;;;;;5052952;28;20036;-48
2022/03/17 01:18:37;;;;;;;28.35;19.90;;;11.20;99.90;;;;;;5051707;28;20044;-49
2022/03/17 01:21:03;;;;;;;29.00;18.67;;;11.20;99.90;;;;;;5048770;28;20033;-47
2022/03/17 01:23:29;;;;;;;29.00;20.02;;;11.20;99.90;;;;;;5050965;28;20120;-48
2022/03/17 01:25:55;;;;;;;30.30;20.40;;;11.10;99.90;;;;;;5052535;28;20037;-48
2022/03/17 01:28:20;;;;;;;31.67;20.92;;;11.10;99.90;;;;;;5051539;28;20037;-48
2022/03/17 01:30:46;;;;;;;28.73;19.73;;;11.00;99.90;;;;;;5052777;28;20033;-48
2022/03/17 01:33:12;;;;;;;32.25;22.45;;;11.00;99.90;;;;;;5052328;28;20134;-52
2022/03/17 01:35:37;;;;;;;29.15;20.90;;;10.90;99.90;;;;;;5052173;28;20506;-47
2022/03/17 01:38:03;;;;;;;31.75;21.67;;;10.80;99.90;;;;;;5052280;28;20037;-45
2022/03/17 01:40:29;;;;;;;34.47;24.13;;;10.80;99.90;;;;;;5052667;28;20039;-48
2022/03/17 01:42:54;;;;;;;32.45;23.35;;;10.80;99.90;;;;;;5052179;28;20127;-51
2022/03/17 01:45:20;;;;;;;33.58;22.90;;;10.70;99.90;;;;;;5052552;28;20045;-47
2022/03/17 01:47:46;;;;;;;36.33;23.17;;;10.70;99.90;;;;;;5048171;28;20107;-45
2022/03/17 01:50:15;;;;;;;32.10;22.67;;;10.70;99.90;;;;;;5051414;28;20119;-50
2022/03/17 01:52:41;;;;;;;35.15;24.33;;;10.60;99.90;;;;;;5051594;28;20047;-45
2022/03/17 01:55:09;;;;;;;33.13;22.17;;;10.70;99.90;;;;;;5051900;28;20045;-45
2022/03/17 01:57:35;;;;;;;34.95;25.00;;;10.60;99.90;;;;;;5052322;28;20060;-45
2022/03/17 02:00:04;;;;;;;34.28;23.38;;;10.70;99.90;;;;;;5052289;28;20397;-48
2022/03/17 02:02:29;;;;;;;33.92;22.83;;;10.70;99.90;;;;;;5051918;28;20037;-49
2022/03/17 02:04:55;;;;;;;37.55;24.45;;;10.70;99.90;;;;;;5050579;28;20100;-45
2022/03/17 02:07:21;;;;;;;37.17;25.15;;;10.70;99.90;;;;;;5051817;28;20041;-47
2022/03/17 02:09:50;;;;;;;33.88;23.98;;;10.70;99.90;;;;;;5051813;28;20388;-48
2022/03/17 02:15:04;;;;;;;33.20;23.55;;;10.70;99.90;;;;;;5051809;28;20044;-48
2022/03/17 02:17:31;;;;;;;36.17;25.17;;;10.80;99.90;;;;;;5051584;28;20033;-50
2022/03/17 02:19:58;;;;;;;36.47;24.98;;;10.80;99.90;;;;;;5051640;28;20107;-47
2022/03/17 02:22:25;;;;;;;31.52;22.30;;;10.80;99.90;;;;;;5051829;28;20033;-45
2022/03/17 02:27:41;;;;;;;37.55;26.35;;;10.80;99.90;;;;;;5051797;28;20118;-48
2022/03/17 02:30:09;;;;;;;35.15;24.25;;;10.70;99.90;;;;;;5051667;28;20052;-48
2022/03/17 02:32:36;;;;;;;35.20;24.95;;;10.80;99.90;;;;;;5048103;28;20048;-48
2022/03/17 02:35:07;;;;;;;35.50;23.83;;;10.70;99.90;;;;;;5049349;28;20033;-51
2022/03/17 02:37:34;;;;;;;34.30;25.13;;;10.80;99.90;;;;;;5050206;28;20039;-47
2022/03/17 02:40:01;;;;;;;38.70;26.40;;;10.80;99.90;;;;;;5050994;28;20068;-47
2022/03/17 02:42:30;;;;;;;38.45;25.77;;;10.80;99.90;;;;;;5050976;28;20060;-48
2022/03/17 02:45:00;;;;;;;35.58;25.05;;;10.80;99.90;;;;;;5051383;28;20057;-49
2022/03/17 02:47:26;;;;;;;39.40;25.45;;;10.80;99.90;;;;;;5051432;28;20618;-47
2022/03/17 02:49:56;;;;;;;39.95;25.65;;;10.80;99.90;;;;;;5051030;28;20056;-47
2022/03/17 02:52:26;;;;;;;37.90;26.33;;;10.80;99.90;;;;;;5051327;28;20518;-50
2022/03/17 02:54:52;;;;;;;36.97;25.77;;;10.80;99.90;;;;;;5051283;28;20495;-48
2022/03/17 02:57:19;;;;;;;39.58;26.55;;;10.80;99.90;;;;;;5051196;28;20484;-48
2022/03/17 02:59:46;;;;;;;38.92;26.92;;;10.80;99.90;;;;;;5050967;28;20041;-47
2022/03/17 03:02:13;;;;;;;37.90;26.80;;;10.90;99.90;;;;;;5030303;28;20134;-49
2022/03/17 03:04:40;;;;;;;40.28;27.27;;;10.80;99.90;;;;;;5050885;28;20052;-46
2022/03/17 03:07:06;;;;;;;40.05;28.17;;;10.90;99.90;;;;;;5050753;28;20129;-47
2022/03/17 03:09:32;;;;;;;39.05;27.65;;;10.90;99.90;;;;;;5050453;28;20567;-47
2022/03/17 03:11:58;;;;;;;42.28;27.17;;;10.90;99.90;;;;;;5049260;28;20036;-47
2022/03/17 03:14:24;;;;;;;38.13;26.38;;;10.90;99.90;;;;;;5050747;28;20033;-45
2022/03/17 03:16:51;;;;;;;41.03;27.00;;;11.00;99.90;;;;;;5048343;28;20032;-45
2022/03/17 03:19:17;;;;;;;42.97;26.40;;;11.00;99.90;;;;;;5048067;28;20076;-49
2022/03/17 03:21:46;;;;;;;38.90;26.33;;;11.00;99.90;;;;;;5049141;28;20485;-48
2022/03/17 03:24:13;;;;;;;37.95;26.85;;;11.00;99.90;;;;;;5048935;28;20040;-48
2022/03/17 03:26:43;;;;;;;41.38;26.30;;;11.00;99.90;;;;;;5050494;28;20071;-45
2022/03/17 03:29:28;;;;;;;40.40;26.98;;;11.00;99.90;;;;;;5050583;28;20037;-50
2022/03/17 03:32:00;;;;;;;41.85;27.77;;;10.90;99.90;;;;;;5050556;28;20041;-48
2022/03/17 03:34:27;;;;;;;36.58;25.58;;;10.90;99.90;;;;;;5050415;28;20575;-49
2022/03/17 03:39:38;;;;;;;41.65;28.27;;;10.90;99.90;;;;;;5049786;28;20048;-50
2022/03/17 03:42:07;;;;;;;41.85;28.27;;;10.80;99.90;;;;;;5048141;28;20460;-48
2022/03/17 03:44:34;;;;;;;46.92;28.13;;;10.80;99.90;;;;;;5049944;28;20041;-49
2022/03/17 03:47:00;;;;;;;40.83;27.33;;;10.70;99.90;;;;;;5049956;28;20037;-48
2022/03/17 03:49:26;;;;;;;44.35;27.50;;;10.60;99.90;;;;;;5050051;28;20041;-50
2022/03/17 03:51:52;;;;;;;46.53;30.55;;;10.50;99.90;;;;;;5050322;28;20072;-48
2022/03/17 03:54:17;;;;;;;48.58;31.25;;;10.50;99.90;;;;;;5050193;28;20048;-48
2022/03/17 03:56:51;;;;;;;50.65;30.85;;;10.40;99.90;;;;;;5050348;28;20032;-48
2022/03/17 03:59:22;;;;;;;54.70;32.08;;;10.30;99.90;;;;;;5050163;28;20110;-48
2022/03/17 04:01:50;;;;;;;52.83;32.85;;;10.10;99.90;;;;;;5047964;28;20465;-50
2022/03/17 04:04:20;;;;;;;50.00;31.20;;;10.20;99.90;;;;;;5048588;28;20045;-47
2022/03/17 04:06:58;;;;;;;50.60;31.83;;;10.10;99.90;;;;;;5047973;28;20542;-46
2022/03/17 04:09:27;;;;;;;54.50;32.55;;;9.90;99.90;;;;;;5049581;28;20419;-47
2022/03/17 04:11:53;;;;;;;57.15;34.17;;;9.80;99.90;;;;;;5050165;28;20041;-46
2022/03/17 04:14:19;;;;;;;59.63;35.58;;;9.70;99.90;;;;;;5049708;28;20056;-46
2022/03/17 04:16:45;;;;;;;63.03;36.72;;;10.00;99.90;;;;;;5050079;28;20084;-46
2022/03/17 04:19:11;;;;;;;64.50;36.95;;;9.90;99.90;;;;;;5050005;28;20069;-48
2022/03/17 04:21:37;;;;;;;62.22;36.20;;;9.70;99.90;;;;;;5049568;28;20527;-45
2022/03/17 04:24:03;;;;;;;67.10;37.00;;;9.70;99.90;;;;;;5050041;28;20064;-49
2022/03/17 04:26:28;;;;;;;68.78;37.90;;;9.80;99.90;;;;;;5047750;28;20497;-49
2022/03/17 04:28:55;;;;;;;67.28;37.05;;;10.10;99.90;;;;;;5049507;28;20040;-48
2022/03/17 04:31:21;;;;;;;57.28;31.92;;;10.00;99.90;;;;;;5049752;28;20129;-49
2022/03/17 04:33:50;;;;;;;41.28;22.98;;;9.90;99.90;;;;;;5049919;28;20033;-48
2022/03/17 04:36:17;;;;;;;26.17;15.90;;;9.50;99.90;;;;;;5049985;28;20033;-48
2022/03/17 04:38:43;;;;;;;14.60;8.55;;;9.30;99.90;;;;;;5049201;28;20044;-49
2022/03/17 04:41:10;;;;;;;13.85;8.55;;;8.90;99.90;;;;;;5049805;28;20029;-46
2022/03/17 04:43:36;;;;;;;13.93;8.65;;;8.60;99.90;;;;;;5064766;28;20057;-49
2022/03/17 04:46:02;;;;;;;13.93;8.75;;;8.50;99.90;;;;;;5049618;28;20485;-50
2022/03/17 04:48:28;;;;;;;13.93;8.77;;;8.60;99.90;;;;;;5047675;28;20032;-50
2022/03/17 04:50:54;;;;;;;12.73;8.63;;;8.50;99.90;;;;;;5047076;28;20095;-47
2022/03/17 04:53:29;;;;;;;14.52;8.85;;;8.70;99.90;;;;;;5049676;28;20037;-48
2022/03/17 04:56:14;;;;;;;14.52;9.10;;;8.60;99.90;;;;;;5049813;28;20150;-49
2022/03/17 04:58:41;;;;;;;16.20;8.85;;;8.60;99.90;;;;;;5052204;28;20033;-48
2022/03/17 05:01:09;;;;;;;11.63;7.82;;;8.50;99.90;;;;;;5053042;28;20565;-49
2022/03/17 05:03:36;;;;;;;11.10;8.10;;;8.50;99.90;;;;;;5052972;28;20041;-49
2022/03/17 05:06:03;;;;;;;12.38;7.95;;;8.20;99.90;;;;;;5052942;28;20044;-47
2022/03/17 05:08:29;;;;;;;10.20;6.82;;;8.40;99.90;;;;;;5052549;28;20041;-48
2022/03/17 05:10:55;;;;;;;11.15;7.82;;;8.30;99.90;;;;;;5050328;28;20037;-47
2022/03/17 05:13:25;;;;;;;13.30;8.50;;;8.20;99.90;;;;;;5051741;28;20033;-49
2022/03/17 05:15:54;;;;;;;16.15;9.43;;;8.10;99.90;;;;;;5052387;28;20036;-48
2022/03/17 05:18:20;;;;;;;12.43;8.23;;;8.30;99.90;;;;;;5052596;28;20037;-51
2022/03/17 05:20:47;;;;;;;14.23;9.38;;;8.20;99.90;;;;;;5052824;28;20079;-46
2022/03/17 05:23:15;;;;;;;21.70;9.50;;;8.20;99.90;;;;;;5053055;28;20477;-46
2022/03/17 05:25:45;;;;;;;13.57;8.57;;;8.20;99.90;;;;;;5052277;28;20033;-47
2022/03/17 05:28:12;;;;;;;15.80;9.02;;;8.20;99.90;;;;;;5052754;28;20065;-45
2022/03/17 05:30:39;;;;;;;15.95;9.25;;;8.00;99.90;;;;;;5052479;28;20087;-47
2022/03/17 05:33:06;;;;;;;16.13;9.85;;;8.00;99.90;;;;;;5048605;28;20041;-47
2022/03/17 05:35:32;;;;;;;23.38;12.07;;;8.20;99.90;;;;;;5048552;28;20037;-48
2022/03/17 05:37:58;;;;;;;26.13;13.55;;;8.00;99.90;;;;;;5032504;28;20048;-46
2022/03/17 05:40:25;;;;;;;29.23;14.48;;;8.00;99.90;;;;;;5051400;28;20044;-46
2022/03/17 05:42:54;;;;;;;29.13;14.10;;;8.20;99.90;;;;;;5052231;28;20570;-50
2022/03/17 05:45:20;;;;;;;32.80;16.00;;;7.90;99.90;;;;;;5052085;28;20048;-47
2022/03/17 05:47:49;;;;;;;31.70;14.55;;;8.20;99.90;;;;;;5052058;28;20048;-46
2022/03/17 05:50:17;;;;;;;27.73;13.52;;;7.90;99.90;;;;;;5052376;28;20083;-49
2022/03/17 05:52:44;;;;;;;23.90;11.63;;;7.90;99.90;;;;;;5050629;28;20037;-46
2022/03/17 05:55:12;;;;;;;24.45;11.85;;;8.00;99.90;;;;;;5051938;28;20037;-49
2022/03/17 05:57:39;;;;;;;21.27;10.98;;;8.10;99.90;;;;;;5052064;28;20029;-49
2022/03/17 06:00:07;;;;;;;17.25;8.80;;;8.10;99.90;;;;;;5051880;28;20037;-46
2022/03/17 06:02:37;;;;;;;25.42;10.02;;;7.80;99.90;;;;;;5051799;28;20095;-47
2022/03/17 06:05:04;;;;;;;18.52;9.07;;;8.20;99.90;;;;;;5051609;28;20064;-50
2022/03/17 06:07:44;;;;;;;19.50;9.20;;;7.90;99.90;;;;;;5051770;28;20472;-45
2022/03/17 06:10:15;;;;;;;31.60;11.77;;;7.90;99.90;;;;;;5050405;28;20040;-46
2022/03/17 06:12:43;;;;;;;37.80;14.30;;;8.00;99.90;;;;;;5051943;28;20048;-47
2022/03/17 06:15:09;;;;;;;27.30;10.30;;;8.00;99.90;;;;;;5051253;28;20048;-46
2022/03/17 06:17:39;;;;;;;35.97;11.55;;;8.00;99.90;;;;;;5047042;28;20045;-47
2022/03/17 06:20:09;;;;;;;23.65;11.10;;;7.90;99.90;;;;;;5050301;28;20099;-48
2022/03/17 06:22:39;;;;;;;17.63;5.57;;;7.90;99.90;;;;;;5051437;28;20076;-47
2022/03/17 06:25:06;;;;;;;18.50;6.13;;;8.00;99.90;;;;;;5051636;28;20045;-48
2022/03/17 06:27:34;;;;;;;12.93;4.30;;;8.00;99.90;;;;;;5051506;28;20091;-47
2022/03/17 06:30:00;;;;;;;11.43;2.70;;;7.90;99.90;;;;;;5051523;28;21358;-46
2022/03/17 06:32:26;;;;;;;9.52;3.00;;;7.80;99.90;;;;;;5051402;28;20045;-49
2022/03/17 06:34:52;;;;;;;13.68;3.13;;;7.80;99.90;;;;;;5050937;28;20045;-44
2022/03/17 06:37:17;;;;;;;10.15;2.63;;;7.90;99.90;;;;;;5051197;28;20036;-48
2022/03/17 06:39:43;;;;;;;11.10;2.72;;;7.80;99.90;;;;;;5050919;28;20033;-51
2022/03/17 06:42:08;;;;;;;11.57;2.95;;;7.80;99.90;;;;;;5051471;28;20033;-49
2022/03/17 06:44:34;;;;;;;17.52;2.80;;;7.80;99.90;;;;;;5050834;28;20060;-50
2022/03/17 06:47:00;;;;;;;16.30;3.05;;;8.00;99.90;;;;;;5049690;28;20056;-49
2022/03/17 06:49:25;;;;;;;15.88;3.50;;;7.90;99.90;;;;;;5051134;28;20045;-47
2022/03/17 06:51:51;;;;;;;15.98;3.22;;;7.90;99.90;;;;;;5066378;28;20043;-49
2022/03/17 06:54:17;;;;;;;15.70;3.20;;;7.90;99.90;;;;;;5050681;28;20045;-49
2022/03/17 06:56:42;;;;;;;8.10;2.10;;;8.00;99.90;;;;;;5049739;28;20040;-48
2022/03/17 06:59:08;;;;;;;11.93;2.50;;;7.80;99.90;;;;;;5050827;28;20048;-47
2022/03/17 07:01:33;;;;;;;15.50;3.63;;;7.90;99.90;;;;;;5049598;28;20044;-47
2022/03/17 07:03:59;;;;;;;18.55;3.47;;;7.90;99.90;;;;;;5048769;28;20041;-50
2022/03/17 07:06:25;;;;;;;11.45;3.20;;;7.90;99.90;;;;;;5050764;28;20041;-46
2022/03/17 07:08:50;;;;;;;11.48;2.55;;;7.80;99.90;;;;;;5050124;28;20099;-45
2022/03/17 07:11:16;;;;;;;15.75;2.72;;;7.90;99.90;;;;;;5050653;28;20468;-45
2022/03/17 07:13:42;;;;;;;16.77;2.75;;;7.90;99.90;;;;;;5050543;28;20425;-48
2022/03/17 07:16:09;;;;;;;13.85;3.15;;;7.70;99.90;;;;;;5065804;28;20036;-47
2022/03/17 07:18:34;;;;;;;17.80;4.28;;;7.80;99.90;;;;;;5065707;28;20041;-48
2022/03/17 07:21:00;;;;;;;15.77;4.20;;;7.70;99.90;;;;;;5050452;28;20494;-46
2022/03/17 07:23:26;;;;;;;17.73;4.05;;;7.90;99.90;;;;;;5050782;28;20039;-48
2022/03/17 07:25:53;;;;;;;20.90;3.92;;;7.90;99.90;;;;;;5050227;28;20496;-46
2022/03/17 07:28:20;;;;;;;13.85;3.13;;;7.80;99.90;;;;;;5050299;28;20037;-47
2022/03/17 07:30:47;;;;;;;11.18;2.05;;;7.90;99.90;;;;;;5050141;28;20051;-52
2022/03/17 07:33:13;;;;;;;10.30;1.67;;;7.90;99.90;;;;;;5050598;28;20461;-51
2022/03/17 07:35:39;;;;;;;12.13;2.10;;;7.70;99.90;;;;;;5050273;28;20059;-47
2022/03/17 07:38:05;;;;;;;14.93;2.65;;;7.90;99.90;;;;;;5049831;28;20116;-48
2022/03/17 07:40:32;;;;;;;10.18;2.17;;;7.80;99.90;;;;;;5050502;28;20392;-46
2022/03/17 07:42:58;;;;;;;13.77;2.80;;;7.80;99.90;;;;;;5049961;28;20454;-52
2022/03/17 07:45:24;;;;;;;12.75;2.38;;;7.80;99.90;;;;;;5049873;28;20048;-51
2022/03/17 07:47:50;;;;;;;15.85;2.30;;;7.80;99.90;;;;;;5046027;28;20047;-45
2022/03/17 07:50:17;;;;;;;21.23;2.47;;;7.90;99.90;;;;;;5049705;28;20498;-50
2022/03/17 07:52:43;;;;;;;16.23;2.13;;;7.80;99.90;;;;;;5049576;28;20033;-46
2022/03/17 07:55:09;;;;;;;20.77;2.90;;;7.70;99.90;;;;;;5050003;28;20041;-45
2022/03/17 07:57:36;;;;;;;16.27;3.00;;;7.60;99.90;;;;;;5050185;28;20029;-46
2022/03/17 08:00:04;;;;;;;20.08;2.28;;;7.40;99.90;;;;;;5048261;28;20029;-48
2022/03/17 08:02:31;;;;;;;13.73;2.83;;;7.60;99.90;;;;;;5047331;28;20036;-50
2022/03/17 08:04:56;;;;;;;11.02;1.70;;;7.50;99.90;;;;;;5049313;28;20072;-46
2022/03/17 08:07:22;;;;;;;11.95;2.10;;;7.60;99.90;;;;;;5040747;28;20626;-47
2022/03/17 08:09:48;;;;;;;8.88;1.60;;;7.80;99.90;;;;;;5040870;28;20036;-47
2022/03/17 08:12:13;;;;;;;18.55;2.78;;;7.60;99.90;;;;;;5041867;28;20393;-48
2022/03/17 08:14:39;;;;;;;12.30;2.50;;;7.60;99.90;;;;;;5040948;28;20128;-46
2022/03/17 08:17:05;;;;;;;17.08;2.53;;;7.50;99.90;;;;;;5040121;28;20033;-48
2022/03/17 08:19:33;;;;;;;11.77;3.17;;;7.60;99.90;;;;;;5038153;28;20052;-46
2022/03/17 08:21:59;;;;;;;21.30;3.30;;;7.70;99.90;;;;;;5039987;28;20504;-50
2022/03/17 08:24:24;;;;;;;17.25;4.03;;;7.60;99.90;;;;;;5041668;28;20135;-47
2022/03/17 08:26:52;;;;;;;18.70;3.92;;;7.50;99.90;;;;;;5040770;28;20091;-46
2022/03/17 08:29:18;;;;;;;20.25;4.88;;;7.60;99.90;;;;;;5059975;28;20037;-46
2022/03/17 08:31:43;;;;;;;22.27;5.50;;;7.70;99.90;;;;;;5043741;28;20040;-46
2022/03/17 08:34:09;;;;;;;23.25;5.55;;;7.60;99.90;;;;;;5042355;28;20070;-48
2022/03/17 08:36:35;;;;;;;24.98;6.05;;;7.60;99.90;;;;;;5048793;28;20099;-51
2022/03/17 08:39:00;;;;;;;22.23;5.07;;;7.70;99.90;;;;;;5047175;28;20037;-50
2022/03/17 08:41:26;;;;;;;24.27;5.38;;;7.70;99.90;;;;;;5052559;28;20037;-48
2022/03/17 08:43:52;;;;;;;14.65;3.30;;;7.80;99.90;;;;;;5066499;28;20064;-49
2022/03/17 08:49:19;;;;;;;11.90;2.40;;;7.90;99.90;;;;;;5052473;28;20052;-46
2022/03/17 08:51:51;;;;;;;12.75;2.65;;;8.00;99.90;;;;;;5053467;28;20044;-47
2022/03/17 08:54:18;;;;;;;17.30;2.38;;;8.10;99.90;;;;;;5053043;28;20102;-46
2022/03/17 08:56:43;;;;;;;15.77;2.30;;;8.10;99.90;;;;;;5052747;28;20041;-47
2022/03/17 08:59:10;;;;;;;15.13;2.22;;;8.30;99.90;;;;;;5052574;28;20037;-48
2022/03/17 09:01:39;;;;;;;10.55;2.22;;;8.10;99.90;;;;;;5052860;28;20041;-48
2022/03/17 09:04:05;;;;;;;16.50;2.30;;;8.10;99.90;;;;;;5051913;28;20037;-48
2022/03/17 09:06:31;;;;;;;14.70;2.05;;;8.10;99.90;;;;;;5052802;28;20500;-48
2022/03/17 09:08:57;;;;;;;14.20;2.13;;;8.10;99.90;;;;;;5051614;28;20039;-50
2022/03/17 09:11:22;;;;;;;17.27;2.40;;;8.10;99.90;;;;;;5052428;28;20037;-48
2022/03/17 09:13:49;;;;;;;13.02;2.05;;;8.10;99.90;;;;;;5049479;28;20384;-50
2022/03/17 09:16:16;;;;;;;12.30;2.03;;;8.00;99.90;;;;;;5048370;28;20040;-47
2022/03/17 09:18:43;;;;;;;15.68;2.00;;;8.00;99.90;;;;;;5051814;28;20029;-49
2022/03/17 09:21:09;;;;;;;16.63;2.80;;;8.00;99.90;;;;;;5052149;28;20036;-49
2022/03/17 09:23:35;;;;;;;15.00;2.65;;;8.00;99.90;;;;;;5052164;28;20039;-51
2022/03/17 09:26:01;;;;;;;21.50;3.35;;;8.00;99.90;;;;;;5052014;28;20408;-50
2022/03/17 09:28:27;;;;;;;18.13;2.30;;;7.90;99.90;;;;;;5051986;28;20094;-48
2022/03/17 09:30:54;;;;;;;17.98;2.80;;;8.00;99.90;;;;;;5052070;28;20120;-48
2022/03/17 09:33:25;;;;;;;16.10;2.35;;;8.00;99.90;;;;;;5052013;28;20151;-46
2022/03/17 09:35:55;;;;;;;14.07;2.10;;;7.90;99.90;;;;;;5051193;28;20048;-49
2022/03/17 09:38:21;;;;;;;13.05;2.38;;;8.00;99.90;;;;;;5051647;28;20488;-50
2022/03/17 09:40:47;;;;;;;14.07;2.05;;;8.10;99.90;;;;;;5052129;28;20129;-48
2022/03/17 09:43:19;;;;;;;11.77;2.10;;;8.20;99.90;;;;;;5051231;28;20559;-51
2022/03/17 09:45:46;;;;;;;13.18;1.80;;;8.10;99.90;;;;;;5051838;28;20033;-47
2022/03/17 09:48:15;;;;;;;13.02;2.63;;;8.30;99.90;;;;;;5051990;28;20139;-47
2022/03/17 09:50:42;;;;;;;10.10;1.88;;;9.00;99.90;;;;;;5051658;28;20487;-46
2022/03/17 09:53:09;;;;;;;13.57;2.08;;;8.50;99.90;;;;;;5051528;28;20040;-46
2022/03/17 09:55:36;;;;;;;11.27;2.20;;;8.70;99.90;;;;;;5051584;28;20033;-49
2022/03/17 09:58:06;;;;;;;11.05;2.67;;;8.90;99.90;;;;;;5051149;28;20036;-47
2022/03/17 10:00:48;;;;;;;9.23;1.67;;;9.10;99.90;;;;;;5050572;28;20040;-49
2022/03/17 10:03:27;;;;;;;12.65;2.63;;;9.10;99.90;;;;;;5050415;28;20032;-47
2022/03/17 10:05:54;;;;;;;10.38;2.13;;;9.20;99.90;;;;;;5046202;28;20055;-47
2022/03/17 10:08:21;;;;;;;14.65;2.15;;;9.10;99.90;;;;;;5032824;28;20045;-47
2022/03/17 10:10:49;;;;;;;14.27;1.67;;;9.20;99.90;;;;;;5051014;28;20084;-49
2022/03/17 10:13:17;;;;;;;12.50;2.05;;;9.30;99.90;;;;;;5048816;28;20071;-48
2022/03/17 10:15:47;;;;;;;10.05;1.77;;;9.40;99.90;;;;;;5050754;28;20072;-48
2022/03/17 10:18:24;;;;;;;8.13;1.67;;;9.30;99.90;;;;;;5051083;28;20062;-47
2022/03/17 10:21:24;;;;;;;9.40;1.48;;;9.40;99.90;;;;;;5051086;28;20126;-46
2022/03/17 10:23:55;;;;;;;11.38;1.75;;;9.80;99.90;;;;;;5050438;28;20037;-46
2022/03/17 10:26:57;;;;;;;18.77;2.30;;;9.70;99.90;;;;;;5049468;28;20119;-49
2022/03/17 10:29:26;;;;;;;11.02;1.52;;;9.70;99.90;;;;;;5047358;28;20449;-48
2022/03/17 10:32:05;;;;;;;12.35;1.70;;;9.80;99.90;;;;;;5049066;28;20044;-49
2022/03/17 10:34:46;;;;;;;12.45;1.92;;;9.90;99.90;;;;;;5050421;28;20123;-45
2022/03/17 10:37:13;;;;;;;7.90;1.52;;;10.00;99.90;;;;;;5048534;28;20075;-50
2022/03/17 10:39:42;;;;;;;11.05;2.20;;;10.10;99.90;;;;;;5050958;28;20037;-49
2022/03/17 10:42:13;;;;;;;10.02;1.90;;;10.10;99.90;;;;;;5051043;28;20041;-47
2022/03/17 10:44:41;;;;;;;8.80;2.15;;;10.00;99.90;;;;;;5051023;28;20128;-48
2022/03/17 10:47:06;;;;;;;13.57;1.85;;;9.80;99.90;;;;;;5051273;28;20136;-48
2022/03/17 10:49:33;;;;;;;12.65;1.80;;;9.80;99.90;;;;;;5051314;28;20139;-48
2022/03/17 10:51:59;;;;;;;9.88;1.60;;;9.90;99.90;;;;;;5051137;28;20045;-48
2022/03/17 10:54:25;;;;;;;12.38;2.33;;;10.00;99.90;;;;;;5050817;28;20041;-49
2022/03/17 10:57:18;;;;;;;10.18;1.70;;;10.30;99.90;;;;;;5066045;28;20472;-48
2022/03/17 10:59:47;;;;;;;11.75;2.17;;;10.30;99.90;;;;;;5050512;28;20045;-47
2022/03/17 11:02:24;;;;;;;8.77;1.50;;;10.10;99.90;;;;;;5050814;28;20048;-49
2022/03/17 11:04:50;;;;;;;10.13;1.75;;;10.20;99.90;;;;;;5050780;28;20044;-49
2022/03/17 11:07:19;;;;;;;7.78;1.50;;;10.00;99.90;;;;;;5050763;28;20048;-45
2022/03/17 11:09:46;;;;;;;8.07;1.50;;;10.10;99.90;;;;;;5050548;28;20048;-50
2022/03/17 11:12:20;;;;;;;8.07;1.70;;;10.30;99.90;;;;;;5050731;28;20098;-47
2022/03/17 11:14:49;;;;;;;11.90;1.80;;;10.70;99.90;;;;;;5050694;28;20041;-47
2022/03/17 11:17:37;;;;;;;11.93;1.90;;;10.70;99.90;;;;;;5050730;28;20048;-52
2022/03/17 11:20:06;;;;;;;8.98;1.70;;;10.50;99.90;;;;;;5050620;28;20041;-51
2022/03/17 11:22:33;;;;;;;9.70;1.92;;;10.50;99.90;;;;;;5050057;28;20041;-48
2022/03/17 11:25:24;;;;;;;9.43;1.75;;;10.60;99.90;;;;;;5050190;28;20166;-49
2022/03/17 11:27:56;;;;;;;10.18;1.70;;;10.50;99.90;;;;;;5050639;28;20033;-48
2022/03/17 11:30:22;;;;;;;11.15;1.88;;;10.60;99.90;;;;;;5050510;28;20040;-49
2022/03/17 11:32:54;;;;;;;10.48;1.90;;;10.70;99.90;;;;;;5049152;28;20380;-48
2022/03/17 11:35:22;;;;;;;10.55;1.80;;;10.80;99.90;;;;;;5050189;28;20040;-48
2022/03/17 11:37:48;;;;;;;10.70;2.05;;;10.90;99.90;;;;;;5049767;28;20048;-50
2022/03/17 11:40:15;;;;;;;9.00;1.73;;;11.00;99.90;;;;;;5039226;28;20041;-49
2022/03/17 11:42:52;;;;;;;10.45;2.05;;;11.10;99.90;;;;;;5042495;28;20036;-46
2022/03/17 11:45:19;;;;;;;9.32;1.63;;;11.20;99.90;;;;;;5046395;28;20080;-47
2022/03/17 11:47:51;;;;;;;14.68;2.00;;;11.00;99.90;;;;;;5049689;28;20049;-50
2022/03/17 11:50:38;;;;;;;12.77;1.90;;;11.10;99.90;;;;;;5065122;28;20045;-46
2022/03/17 11:53:20;;;;;;;7.35;1.60;;;11.20;99.90;;;;;;5046667;28;20128;-51
2022/03/17 11:55:46;;;;;;;13.45;2.40;;;11.20;99.90;;;;;;5048170;28;20036;-47
2022/03/17 11:58:25;;;;;;;10.50;1.92;;;11.50;99.90;;;;;;5049079;28;20044;-48
2022/03/17 12:01:00;;;;;;;9.25;1.65;;;11.50;99.90;;;;;;5048794;28;20037;-48
2022/03/17 12:03:50;;;;;;;12.10;1.90;;;11.40;99.90;;;;;;5048615;28;20041;-47
2022/03/17 12:06:19;;;;;;;9.27;1.50;;;11.10;99.90;;;;;;5041895;28;20067;-48
2022/03/17 12:08:58;;;;;;;13.57;2.38;;;11.50;99.90;;;;;;5039052;28;20037;-50
2022/03/17 12:11:26;;;;;;;11.43;2.00;;;11.80;99.90;;;;;;5039015;28;20037;-49
2022/03/17 12:14:10;;;;;;;11.68;1.98;;;12.00;99.90;;;;;;5039519;28;20607;-49
2022/03/17 12:16:53;;;;;;;9.73;1.73;;;11.50;99.90;;;;;;5036221;28;20041;-48
2022/03/17 12:19:36;;;;;;;10.38;1.45;;;11.50;99.90;;;;;;5044696;28;20489;-50
2022/03/17 12:22:13;;;;;;;7.25;1.42;;;11.80;99.90;;;;;;5043974;28;20037;-50
2022/03/17 12:24:52;;;;;;;10.15;1.45;;;11.80;99.90;;;;;;5049960;28;20033;-47
2022/03/17 12:27:22;;;;;;;10.70;1.95;;;11.40;99.90;;;;;;5050465;28;20037;-47
2022/03/17 12:29:54;;;;;;;11.57;1.60;;;11.30;99.90;;;;;;5050317;28;20037;-48
2022/03/17 12:32:21;;;;;;;10.88;1.92;;;11.60;99.90;;;;;;5053126;28;20048;-46
2022/03/17 12:34:49;;;;;;;10.88;1.70;;;11.40;99.90;;;;;;5052929;28;20063;-47
2022/03/17 12:37:17;;;;;;;8.18;1.60;;;11.40;99.90;;;;;;5048129;28;20032;-49
2022/03/17 12:39:46;;;;;;;9.88;1.80;;;11.70;99.90;;;;;;5037629;28;20041;-48
2022/03/17 12:42:19;;;;;;;9.93;1.58;;;12.00;99.90;;;;;;5042013;28;20086;-50
2022/03/17 12:45:02;;;;;;;7.88;1.88;;;11.90;99.90;;;;;;5042738;28;20671;-51
2022/03/17 12:47:29;;;;;;;12.98;1.58;;;11.90;99.90;;;;;;5043178;28;20037;-52
2022/03/17 12:49:57;;;;;;;8.93;1.70;;;12.20;99.90;;;;;;5044267;28;20109;-49
2022/03/17 12:52:27;;;;;;;9.20;1.75;;;12.20;99.90;;;;;;5043014;28;20040;-48
2022/03/17 12:54:58;;;;;;;9.93;1.55;;;12.30;99.90;;;;;;5041715;28;20045;-47